createdAt,value
2023-04-25T00:01:00.043Z,99108.47
2023-04-25T00:01:54.058Z,99085.13
2023-04-25T00:02:48.175Z,99093.06
2023-04-25T00:03:29.337Z,99094.75
2023-04-25T00:04:12.753Z,99089.69
2023-04-25T00:04:54.290Z,99099.19
2023-04-25T00:05:35.183Z,99094.59
2023-04-25T00:06:15.995Z,99096.44
2023-04-25T00:06:56.752Z,99095.97
2023-04-25T00:07:39.046Z,99092.22
2023-04-25T00:08:19.155Z,99091.56
2023-04-25T00:09:01.015Z,99074.63
2023-04-25T00:09:41.455Z,99096.94
2023-04-25T00:10:21.002Z,99081.56
2023-04-25T00:11:01.090Z,99087.81
2023-04-25T00:11:42.016Z,99089.19
2023-04-25T00:12:23.783Z,99101.03
2023-04-25T00:13:05.071Z,99083.25
2023-04-25T00:13:45.182Z,99091.72
2023-04-25T00:14:25.073Z,99105.44
2023-04-25T00:15:05.085Z,99078.69
2023-04-25T00:15:46.060Z,99093.59
2023-04-25T00:16:26.120Z,99099.66
2023-04-25T00:17:06.995Z,99095.94
2023-04-25T00:17:47.150Z,99096.59
2023-04-25T00:18:28.020Z,99102.34
2023-04-25T00:19:09.514Z,99103.72
2023-04-25T00:19:52.057Z,99093.91
2023-04-25T00:20:32.141Z,99089.50
2023-04-25T00:21:14.000Z,99096.09
2023-04-25T00:21:54.392Z,99092.91
2023-04-25T00:22:34.044Z,99093.59
2023-04-25T00:23:18.500Z,99110.81
2023-04-25T00:24:00.051Z,99099.78
2023-04-25T00:24:40.201Z,99092.91
2023-04-25T00:25:20.011Z,99085.94
2023-04-25T00:26:00.244Z,99093.19
2023-04-25T00:26:42.998Z,99094.59
2023-04-25T00:27:23.145Z,99105.06
2023-04-25T00:28:03.998Z,99096.97
2023-04-25T00:28:44.145Z,99084.59
2023-04-25T00:29:23.975Z,99082.38
2023-04-25T00:30:04.117Z,99107.41
2023-04-25T00:30:44.041Z,99096.22
2023-04-25T00:31:24.173Z,99094.53
2023-04-25T00:32:05.066Z,99088.13
2023-04-25T00:32:45.291Z,99102.31
2023-04-25T00:33:25.047Z,99088.31
2023-04-25T00:34:05.086Z,99096.94
2023-04-25T00:34:44.974Z,99098.22
2023-04-25T00:35:25.099Z,99100.44
2023-04-25T00:36:05.994Z,99089.44
2023-04-25T00:36:46.119Z,99091.47
2023-04-25T00:37:26.979Z,99102.31
2023-04-25T00:38:07.170Z,99097.88
2023-04-25T00:38:47.048Z,99099.06
2023-04-25T00:39:27.168Z,99100.63
2023-04-25T00:40:07.982Z,99087.75
2023-04-25T00:40:48.102Z,99097.91
2023-04-25T00:41:29.062Z,99098.94
2023-04-25T00:42:09.098Z,99090.19
2023-04-25T00:42:49.932Z,99106.69
2023-04-25T00:43:30.095Z,99090.81
2023-04-25T00:44:11.968Z,99080.47
2023-04-25T00:44:53.074Z,99085.94
2023-04-25T00:45:37.154Z,99097.28
2023-04-25T00:46:17.200Z,99099.31
2023-04-25T00:47:19.047Z,99097.97
2023-04-25T00:48:12.934Z,99099.78
2023-04-25T00:49:06.970Z,99103.81
2023-04-25T00:50:00.979Z,99103.63
2023-04-25T00:50:54.996Z,99096.22
2023-04-25T00:51:48.933Z,99093.41
2023-04-25T00:52:36.028Z,99097.28
2023-04-25T00:53:10.990Z,99083.72
2023-04-25T00:53:57.967Z,99107.72
2023-04-25T00:54:32.033Z,99097.41
2023-04-25T00:55:20.066Z,99099.59
2023-04-25T00:55:54.182Z,99107.03
2023-04-25T00:56:40.939Z,99109.75
2023-04-25T00:57:15.198Z,99093.88
2023-04-25T00:57:55.996Z,99097.88
2023-04-25T00:58:36.023Z,99102.66
2023-04-25T00:59:17.937Z,99100.25
2023-04-25T00:59:59.363Z,99098.59
2023-04-25T01:00:40.155Z,99106.56
2023-04-25T01:01:20.585Z,99114.63
2023-04-25T01:02:02.100Z,99109.88
2023-04-25T01:02:43.161Z,99086.88
2023-04-25T01:03:25.291Z,99104.28
2023-04-25T01:04:07.420Z,99110.19
2023-04-25T01:04:48.161Z,99099.84
2023-04-25T01:05:28.047Z,99104.13
2023-04-25T01:06:09.991Z,99112.25
2023-04-25T01:06:50.036Z,99097.47
2023-04-25T01:07:29.945Z,99107.50
2023-04-25T01:08:10.089Z,99110.31
2023-04-25T01:08:50.947Z,99107.97
2023-04-25T01:09:31.063Z,99113.56
2023-04-25T01:10:14.129Z,99112.19
2023-04-25T01:10:54.057Z,99113.38
2023-04-25T01:11:33.959Z,99101.25
2023-04-25T01:12:14.050Z,99101.25
2023-04-25T01:12:54.914Z,99099.88
2023-04-25T01:13:35.110Z,99111.28
2023-04-25T01:14:15.139Z,99117.03
2023-04-25T01:14:55.053Z,99111.69
2023-04-25T01:15:35.968Z,99110.84
2023-04-25T01:16:16.148Z,99108.28
2023-04-25T01:16:56.963Z,99105.75
2023-04-25T01:17:37.388Z,99100.09
2023-04-25T01:18:17.958Z,99103.34
2023-04-25T01:18:58.028Z,99118.72
2023-04-25T01:19:38.947Z,99116.38
2023-04-25T01:20:20.032Z,99109.66
2023-04-25T01:21:01.935Z,99111.28
2023-04-25T01:21:42.146Z,99109.59
2023-04-25T01:22:22.935Z,99115.00
2023-04-25T01:23:04.003Z,99125.16
2023-04-25T01:23:48.164Z,99110.97
2023-04-25T01:24:29.097Z,99112.34
2023-04-25T01:25:10.048Z,99131.59
2023-04-25T01:25:49.989Z,99118.34
2023-04-25T01:26:30.923Z,99119.03
2023-04-25T01:27:11.485Z,99117.16
2023-04-25T01:27:52.925Z,99112.94
2023-04-25T01:28:33.921Z,99126.47
2023-04-25T01:29:15.923Z,99120.66
2023-04-25T01:29:57.090Z,99131.31
2023-04-25T01:30:38.010Z,99123.00
2023-04-25T01:31:20.195Z,99124.75
2023-04-25T01:32:01.044Z,99118.28
2023-04-25T01:32:42.020Z,99108.09
2023-04-25T01:33:23.929Z,99129.78
2023-04-25T01:34:05.209Z,99114.91
2023-04-25T01:34:44.957Z,99121.03
2023-04-25T01:35:25.052Z,99121.69
2023-04-25T01:36:04.942Z,99131.03
2023-04-25T01:36:45.089Z,99128.41
2023-04-25T01:37:25.967Z,99132.47
2023-04-25T01:38:07.085Z,99123.66
2023-04-25T01:38:47.967Z,99129.69
2023-04-25T01:39:27.982Z,99119.84
2023-04-25T01:40:08.972Z,99117.50
2023-04-25T01:40:48.992Z,99099.59
2023-04-25T01:41:30.973Z,99103.97
2023-04-25T01:42:10.970Z,99120.53
2023-04-25T01:42:51.972Z,99122.59
2023-04-25T01:43:31.986Z,99113.59
2023-04-25T01:44:11.932Z,99121.22
2023-04-25T01:44:52.027Z,99122.91
2023-04-25T01:45:32.934Z,99119.94
2023-04-25T01:46:13.012Z,99113.78
2023-04-25T01:46:52.957Z,99117.41
2023-04-25T01:47:33.234Z,99126.28
2023-04-25T01:48:13.971Z,99121.22
2023-04-25T01:48:54.030Z,99121.75
2023-04-25T01:49:34.913Z,99130.34
2023-04-25T01:50:16.187Z,99132.66
2023-04-25T01:50:55.921Z,99131.06
2023-04-25T01:51:35.998Z,99128.53
2023-04-25T01:52:15.918Z,99131.09
2023-04-25T01:52:56.047Z,99125.56
2023-04-25T01:53:36.932Z,99133.66
2023-04-25T01:54:17.974Z,99121.78
2023-04-25T01:54:58.929Z,99132.19
2023-04-25T01:55:39.000Z,99114.03
2023-04-25T01:56:18.970Z,99131.09
2023-04-25T01:56:59.076Z,99132.66
2023-04-25T01:57:39.928Z,99137.00
2023-04-25T01:58:20.090Z,99135.00
2023-04-25T01:59:00.972Z,99124.28
2023-04-25T01:59:41.020Z,99132.28
2023-04-25T02:00:21.929Z,99122.81
2023-04-25T02:01:02.093Z,99141.69
2023-04-25T02:01:43.012Z,99133.59
2023-04-25T02:03:02.035Z,99140.19
2023-04-25T02:03:56.159Z,99123.50
2023-04-25T02:04:51.140Z,99136.38
2023-04-25T02:05:52.994Z,99136.03
2023-04-25T02:06:46.914Z,99138.75
2023-04-25T02:07:41.914Z,99135.00
2023-04-25T02:08:23.929Z,99130.44
2023-04-25T02:09:03.992Z,99136.56
2023-04-25T02:09:44.940Z,99140.13
2023-04-25T02:10:24.981Z,99148.13
2023-04-25T02:11:05.884Z,99107.19
2023-04-25T02:11:46.030Z,99132.25
2023-04-25T02:12:26.925Z,99134.19
2023-04-25T02:13:07.130Z,99135.09
2023-04-25T02:13:48.070Z,99131.25
2023-04-25T02:14:27.977Z,99137.00
2023-04-25T02:15:07.885Z,99150.50
2023-04-25T02:15:48.050Z,99140.28
2023-04-25T02:16:28.992Z,99135.72
2023-04-25T02:17:09.358Z,99143.31
2023-04-25T02:17:52.973Z,99134.88
2023-04-25T02:18:33.215Z,99148.91
2023-04-25T02:19:13.876Z,99133.88
2023-04-25T02:19:54.027Z,99145.88
2023-04-25T02:20:35.892Z,99147.16
2023-04-25T02:21:16.281Z,99142.66
2023-04-25T02:21:56.935Z,99128.78
2023-04-25T02:22:37.742Z,99145.50
2023-04-25T02:23:18.870Z,99134.22
2023-04-25T02:23:58.977Z,99139.06
2023-04-25T02:24:40.899Z,99144.44
2023-04-25T02:25:21.087Z,99158.16
2023-04-25T02:26:02.886Z,99156.63
2023-04-25T02:26:42.937Z,99143.59
2023-04-25T02:27:22.876Z,99134.50
2023-04-25T02:28:02.995Z,99144.66
2023-04-25T02:28:42.910Z,99141.75
2023-04-25T02:29:24.088Z,99150.22
2023-04-25T02:30:04.997Z,99139.28
2023-04-25T02:30:46.031Z,99145.84
2023-04-25T02:31:26.901Z,99143.06
2023-04-25T02:32:08.012Z,99144.69
2023-04-25T02:32:48.884Z,99147.44
2023-04-25T02:33:29.035Z,99150.91
2023-04-25T02:34:09.873Z,99158.00
2023-04-25T02:34:50.055Z,99146.97
2023-04-25T02:35:29.902Z,99148.22
2023-04-25T02:36:10.042Z,99139.06
2023-04-25T02:36:49.918Z,99136.28
2023-04-25T02:37:29.989Z,99152.59
2023-04-25T02:38:10.872Z,99135.34
2023-04-25T02:38:51.246Z,99152.38
2023-04-25T02:39:32.882Z,99124.25
2023-04-25T02:40:14.991Z,99149.38
2023-04-25T02:40:54.883Z,99148.06
2023-04-25T02:41:35.067Z,99147.75
2023-04-25T02:42:15.867Z,99127.03
2023-04-25T02:42:56.006Z,99160.34
2023-04-25T02:43:35.870Z,99135.59
2023-04-25T02:44:16.048Z,99145.22
2023-04-25T02:44:55.877Z,99152.94
2023-04-25T02:45:36.296Z,99150.28
2023-04-25T02:46:22.839Z,99144.28
2023-04-25T02:47:08.969Z,99136.06
2023-04-25T02:47:48.969Z,99141.81
2023-04-25T02:48:30.310Z,99147.94
2023-04-25T02:49:09.875Z,99132.88
2023-04-25T02:49:50.010Z,99146.72
2023-04-25T02:50:30.871Z,99142.53
2023-04-25T02:51:10.973Z,99141.06
2023-04-25T02:51:50.862Z,99148.53
2023-04-25T02:52:31.256Z,99131.97
2023-04-25T02:53:10.835Z,99140.09
2023-04-25T02:53:52.200Z,99145.47
2023-04-25T02:54:32.855Z,99152.28
2023-04-25T02:55:14.023Z,99152.97
2023-04-25T02:55:53.879Z,99125.25
2023-04-25T02:56:33.979Z,99147.81
2023-04-25T02:57:14.972Z,99142.00
2023-04-25T02:57:56.333Z,99136.28
2023-04-25T02:58:36.837Z,99148.78
2023-04-25T02:59:16.940Z,99148.84
2023-04-25T02:59:56.836Z,99143.97
2023-04-25T03:00:36.953Z,99150.13
2023-04-25T03:01:16.925Z,99119.22
2023-04-25T03:01:57.038Z,99143.59
2023-04-25T03:02:37.977Z,99149.84
2023-04-25T03:03:19.266Z,99145.50
2023-04-25T03:03:58.862Z,99144.38
2023-04-25T03:04:39.073Z,99142.34
2023-04-25T03:05:19.823Z,99144.38
2023-04-25T03:05:59.927Z,99143.13
2023-04-25T03:06:40.851Z,99120.09
2023-04-25T03:07:21.424Z,99141.91
2023-04-25T03:08:01.862Z,99142.94
2023-04-25T03:08:42.058Z,99150.75
2023-04-25T03:09:22.828Z,99146.47
2023-04-25T03:10:03.385Z,99146.91
2023-04-25T03:10:44.839Z,99147.56
2023-04-25T03:11:24.998Z,99139.72
2023-04-25T03:12:04.835Z,99147.69
2023-04-25T03:12:44.934Z,99133.47
2023-04-25T03:13:24.898Z,99136.72
2023-04-25T03:14:04.945Z,99133.03
2023-04-25T03:14:45.840Z,99130.78
2023-04-25T03:15:25.951Z,99135.94
2023-04-25T03:16:05.907Z,99130.94
2023-04-25T03:16:46.157Z,99137.13
2023-04-25T03:17:25.901Z,99139.81
2023-04-25T03:18:05.947Z,99143.53
2023-04-25T03:18:46.850Z,99133.44
2023-04-25T03:19:26.959Z,99147.38
2023-04-25T03:20:06.832Z,99133.28
2023-04-25T03:20:47.947Z,99135.25
2023-04-25T03:21:27.875Z,99141.59
2023-04-25T03:22:07.927Z,99142.13
2023-04-25T03:22:48.843Z,99144.66
2023-04-25T03:23:29.023Z,99134.31
2023-04-25T03:24:10.828Z,99139.66
2023-04-25T03:24:50.975Z,99136.78
2023-04-25T03:25:30.853Z,99140.81
2023-04-25T03:26:11.094Z,99136.81
2023-04-25T03:26:51.878Z,99141.50
2023-04-25T03:27:31.933Z,99121.94
2023-04-25T03:28:11.837Z,99142.94
2023-04-25T03:28:51.996Z,99143.13
2023-04-25T03:29:33.835Z,99146.34
2023-04-25T03:30:14.950Z,99140.44
2023-04-25T03:30:55.866Z,99147.47
2023-04-25T03:31:35.954Z,99145.72
2023-04-25T03:32:16.000Z,99132.00
2023-04-25T03:32:56.426Z,99144.16
2023-04-25T03:33:36.809Z,99150.91
2023-04-25T03:34:16.983Z,99143.44
2023-04-25T03:34:57.927Z,99155.56
2023-04-25T03:35:37.915Z,99149.69
2023-04-25T03:36:17.807Z,99152.25
2023-04-25T03:36:57.920Z,99152.47
2023-04-25T03:37:38.807Z,99149.00
2023-04-25T03:38:18.931Z,99158.81
2023-04-25T03:38:59.814Z,99125.13
2023-04-25T03:39:40.021Z,99156.00
2023-04-25T03:40:20.892Z,99159.00
2023-04-25T03:41:01.947Z,99149.84
2023-04-25T03:41:42.851Z,99146.75
2023-04-25T03:42:23.974Z,99159.16
2023-04-25T03:43:04.812Z,99155.03
2023-04-25T03:43:44.931Z,99151.59
2023-04-25T03:44:24.841Z,99152.53
2023-04-25T03:45:04.890Z,99151.53
2023-04-25T03:45:44.845Z,99153.59
2023-04-25T03:46:25.082Z,99151.91
2023-04-25T03:47:05.816Z,99157.09
2023-04-25T03:47:45.987Z,99156.00
2023-04-25T03:48:28.876Z,99154.84
2023-04-25T03:49:09.208Z,99162.41
2023-04-25T03:49:49.867Z,99150.00
2023-04-25T03:50:29.966Z,99149.22
2023-04-25T03:51:10.883Z,99150.59
2023-04-25T03:51:50.911Z,99147.56
2023-04-25T03:52:30.773Z,99149.84
2023-04-25T03:53:10.975Z,99145.22
2023-04-25T03:53:51.057Z,99140.97
2023-04-25T03:54:31.951Z,99148.59
2023-04-25T03:55:12.874Z,99136.28
2023-04-25T03:55:52.881Z,99139.81
2023-04-25T03:56:32.832Z,99145.50
2023-04-25T03:57:12.899Z,99149.31
2023-04-25T03:57:52.805Z,99155.41
2023-04-25T03:58:32.995Z,99152.25
2023-04-25T03:59:13.784Z,99129.66
2023-04-25T03:59:53.970Z,99144.16
2023-04-25T04:00:33.780Z,99150.53
2023-04-25T04:01:13.890Z,99154.00
2023-04-25T04:01:53.828Z,99155.06
2023-04-25T04:02:35.985Z,99148.69
2023-04-25T04:03:17.041Z,99153.38
2023-04-25T04:03:58.406Z,99155.69
2023-04-25T04:04:38.968Z,99152.38
2023-04-25T04:05:20.154Z,99156.16
2023-04-25T04:06:00.827Z,99151.03
2023-04-25T04:06:40.998Z,99152.94
2023-04-25T04:07:21.816Z,99154.22
2023-04-25T04:08:02.936Z,99153.22
2023-04-25T04:08:42.854Z,99163.19
2023-04-25T04:09:22.913Z,99156.00
2023-04-25T04:10:02.760Z,99155.00
2023-04-25T04:10:42.974Z,99161.88
2023-04-25T04:11:23.856Z,99157.31
2023-04-25T04:12:03.867Z,99155.16
2023-04-25T04:12:44.864Z,99161.94
2023-04-25T04:13:24.894Z,99153.13
2023-04-25T04:14:04.797Z,99160.81
2023-04-25T04:14:45.158Z,99150.88
2023-04-25T04:15:25.786Z,99170.03
2023-04-25T04:16:06.201Z,99159.25
2023-04-25T04:16:45.808Z,99133.97
2023-04-25T04:17:26.233Z,99172.97
2023-04-25T04:18:09.893Z,99168.19
2023-04-25T04:18:49.934Z,99165.72
2023-04-25T04:19:30.844Z,99164.50
2023-04-25T04:20:12.099Z,99161.66
2023-04-25T04:20:51.788Z,99163.75
2023-04-25T04:21:32.905Z,99169.31
2023-04-25T04:22:12.761Z,99140.84
2023-04-25T04:22:52.875Z,99164.34
2023-04-25T04:23:34.844Z,99159.31
2023-04-25T04:24:15.974Z,99168.44
2023-04-25T04:24:57.751Z,99172.22
2023-04-25T04:25:37.882Z,99175.59
2023-04-25T04:26:18.758Z,99173.81
2023-04-25T04:26:59.856Z,99166.97
2023-04-25T04:27:40.764Z,99146.22
2023-04-25T04:28:21.590Z,99170.22
2023-04-25T04:29:02.832Z,99166.34
2023-04-25T04:29:42.954Z,99169.50
2023-04-25T04:30:23.776Z,99172.97
2023-04-25T04:31:04.814Z,99148.41
2023-04-25T04:31:45.741Z,99144.47
2023-04-25T04:32:26.520Z,99160.56
2023-04-25T04:33:08.792Z,99166.28
2023-04-25T04:33:49.028Z,99145.31
2023-04-25T04:34:28.816Z,99148.41
2023-04-25T04:35:10.013Z,99173.44
2023-04-25T04:35:50.722Z,99172.75
2023-04-25T04:36:30.886Z,99159.09
2023-04-25T04:37:10.798Z,99171.22
2023-04-25T04:38:04.736Z,99178.75
2023-04-25T04:38:58.772Z,99169.50
2023-04-25T04:39:45.830Z,99170.13
2023-04-25T04:40:19.934Z,99177.44
2023-04-25T04:41:06.729Z,99165.56
2023-04-25T04:41:40.934Z,99170.81
2023-04-25T04:42:28.919Z,99167.28
2023-04-25T04:43:03.113Z,99164.19
2023-04-25T04:43:51.217Z,99165.56
2023-04-25T04:44:26.254Z,99164.19
2023-04-25T04:45:05.796Z,99176.22
2023-04-25T04:45:45.834Z,99161.34
2023-04-25T04:46:25.813Z,99155.31
2023-04-25T04:47:07.840Z,99171.44
2023-04-25T04:47:48.798Z,99163.56
2023-04-25T04:48:29.198Z,99148.53
2023-04-25T04:49:08.724Z,99169.81
2023-04-25T04:49:48.818Z,99170.28
2023-04-25T04:50:28.785Z,99178.53
2023-04-25T04:51:08.804Z,99170.03
2023-04-25T04:51:51.915Z,99160.94
2023-04-25T04:52:32.354Z,99147.41
2023-04-25T04:53:13.728Z,99174.53
2023-04-25T04:53:54.235Z,99172.97
2023-04-25T04:54:34.716Z,99176.22
2023-04-25T04:55:15.825Z,99177.63
2023-04-25T04:55:55.725Z,99174.69
2023-04-25T04:56:38.851Z,99168.53
2023-04-25T04:57:18.728Z,99172.34
2023-04-25T04:57:58.840Z,99177.91
2023-04-25T04:58:38.750Z,99176.22
2023-04-25T04:59:18.914Z,99175.22
2023-04-25T04:59:59.743Z,99175.75
2023-04-25T05:00:39.883Z,99172.97
2023-04-25T05:01:19.882Z,99173.91
2023-04-25T05:02:01.077Z,99173.13
2023-04-25T05:02:40.925Z,99170.19
2023-04-25T05:03:22.024Z,99177.13
2023-04-25T05:04:07.971Z,99188.75
2023-04-25T05:04:48.872Z,99176.88
2023-04-25T05:05:29.739Z,99176.81
2023-04-25T05:06:09.834Z,99170.25
2023-04-25T05:06:49.758Z,99181.28
2023-04-25T05:07:29.802Z,99182.69
2023-04-25T05:08:09.726Z,99166.06
2023-04-25T05:08:50.124Z,99182.06
2023-04-25T05:09:32.695Z,99176.50
2023-04-25T05:10:13.967Z,99154.47
2023-04-25T05:10:53.698Z,99178.59
2023-04-25T05:11:33.840Z,99177.34
2023-04-25T05:12:14.743Z,99167.75
2023-04-25T05:12:54.801Z,99176.28
2023-04-25T05:13:34.763Z,99176.84
2023-04-25T05:14:14.822Z,99179.44
2023-04-25T05:14:54.726Z,99162.78
2023-04-25T05:15:48.716Z,99165.28
2023-04-25T05:16:42.757Z,99177.97
2023-04-25T05:17:29.809Z,99158.41
2023-04-25T05:18:03.841Z,99164.41
2023-04-25T05:18:50.751Z,99174.53
2023-04-25T05:19:24.818Z,99170.50
2023-04-25T05:20:14.735Z,99167.41
2023-04-25T05:20:48.928Z,99155.78
2023-04-25T05:21:35.704Z,99168.34
2023-04-25T05:22:09.770Z,99174.53
2023-04-25T05:22:49.746Z,99157.56
2023-04-25T05:23:32.582Z,99161.19
2023-04-25T05:24:13.704Z,99176.69
2023-04-25T05:24:55.874Z,99173.91
2023-04-25T05:25:35.683Z,99177.22
2023-04-25T05:26:15.806Z,99181.00
2023-04-25T05:26:55.716Z,99172.97
2023-04-25T05:27:35.919Z,99168.97
2023-04-25T05:28:15.690Z,99178.38
2023-04-25T05:28:55.987Z,99174.44
2023-04-25T05:29:35.717Z,99182.00
2023-04-25T05:30:16.844Z,99177.13
2023-04-25T05:30:57.729Z,99179.31
2023-04-25T05:31:37.906Z,99185.56
2023-04-25T05:32:18.899Z,99188.03
2023-04-25T05:32:58.855Z,99172.69
2023-04-25T05:33:38.711Z,99172.34
2023-04-25T05:34:18.860Z,99190.72
2023-04-25T05:34:59.759Z,99182.25
2023-04-25T05:35:39.775Z,99171.59
2023-04-25T05:36:19.692Z,99186.56
2023-04-25T05:36:59.833Z,99154.88
2023-04-25T05:37:40.696Z,99171.59
2023-04-25T05:38:20.823Z,99183.09
2023-04-25T05:39:00.812Z,99164.66
2023-04-25T05:39:41.774Z,99180.69
2023-04-25T05:40:28.728Z,99175.22
2023-04-25T05:41:02.857Z,99175.06
2023-04-25T05:41:49.683Z,99176.63
2023-04-25T05:42:23.764Z,99207.97
2023-04-25T05:43:11.166Z,99200.50
2023-04-25T05:43:48.357Z,99188.25
2023-04-25T05:44:29.834Z,99165.03
2023-04-25T05:45:09.850Z,99195.31
2023-04-25T05:45:49.767Z,99177.91
2023-04-25T05:46:29.891Z,99161.25
2023-04-25T05:47:11.670Z,99178.81
2023-04-25T05:47:51.826Z,99162.97
2023-04-25T05:48:38.682Z,99174.75
2023-04-25T05:49:12.412Z,99186.47
2023-04-25T05:49:52.683Z,99178.13
2023-04-25T05:50:26.844Z,99182.63
2023-04-25T05:51:00.629Z,99172.13
2023-04-25T05:51:41.692Z,99201.19
2023-04-25T05:52:16.426Z,99187.53
2023-04-25T05:52:51.811Z,99198.88
2023-04-25T05:53:31.691Z,99184.47
2023-04-25T05:54:05.827Z,99190.00
2023-04-25T05:54:39.428Z,99192.41
2023-04-25T05:55:20.676Z,99191.56
2023-04-25T05:55:54.794Z,99183.97
2023-04-25T05:56:28.442Z,99175.81
2023-04-25T05:57:09.680Z,99186.28
2023-04-25T05:57:46.172Z,99173.50
2023-04-25T05:58:20.485Z,99179.34
2023-04-25T05:59:01.721Z,99158.56
2023-04-25T05:59:35.999Z,99166.09
2023-04-25T06:00:15.996Z,99184.53
2023-04-25T06:00:56.692Z,99180.03
2023-04-25T06:01:31.032Z,99178.75
2023-04-25T06:02:04.474Z,99170.38
2023-04-25T06:03:06.896Z,99183.03
2023-04-25T06:03:44.095Z,99172.28
2023-04-25T06:04:18.866Z,99172.75
2023-04-25T06:04:58.812Z,99186.63
2023-04-25T06:05:32.801Z,99176.00
2023-04-25T06:06:12.679Z,99182.25
2023-04-25T06:06:52.728Z,99173.81
2023-04-25T06:07:33.665Z,99178.53
2023-04-25T06:08:13.773Z,99183.16
2023-04-25T06:08:53.668Z,99198.31
2023-04-25T06:09:33.771Z,99166.88
2023-04-25T06:10:14.655Z,99192.34
2023-04-25T06:10:55.736Z,99190.31
2023-04-25T06:11:35.657Z,99211.69
2023-04-25T06:12:15.858Z,99191.41
2023-04-25T06:12:56.633Z,99197.00
2023-04-25T06:13:36.704Z,99190.63
2023-04-25T06:14:17.620Z,99181.44
2023-04-25T06:14:59.088Z,99200.72
2023-04-25T06:15:39.651Z,99194.88
2023-04-25T06:16:19.849Z,99184.22
2023-04-25T06:16:59.666Z,99188.75
2023-04-25T06:17:40.894Z,99211.19
2023-04-25T06:18:20.698Z,99204.66
2023-04-25T06:19:01.743Z,99188.75
2023-04-25T06:19:43.661Z,99199.78
2023-04-25T06:20:25.372Z,99193.03
2023-04-25T06:21:05.649Z,99178.22
2023-04-25T06:21:45.791Z,99183.09
2023-04-25T06:22:26.678Z,99194.09
2023-04-25T06:23:07.797Z,99198.03
2023-04-25T06:23:47.659Z,99189.09
2023-04-25T06:24:27.775Z,99178.22
2023-04-25T06:25:08.648Z,99200.34
2023-04-25T06:25:48.731Z,99200.72
2023-04-25T06:26:29.648Z,99195.34
2023-04-25T06:27:10.691Z,99191.00
2023-04-25T06:27:50.664Z,99192.88
2023-04-25T06:28:30.878Z,99192.41
2023-04-25T06:29:10.674Z,99193.88
2023-04-25T06:29:50.760Z,99181.84
2023-04-25T06:30:32.659Z,99188.03
2023-04-25T06:31:13.769Z,99193.41
2023-04-25T06:31:53.680Z,99197.16
2023-04-25T06:32:35.340Z,99179.00
2023-04-25T06:33:16.685Z,99210.00
2023-04-25T06:33:57.854Z,99180.72
2023-04-25T06:34:37.637Z,99177.28
2023-04-25T06:35:20.830Z,99197.63
2023-04-25T06:36:00.655Z,99186.94
2023-04-25T06:36:42.433Z,99194.69
2023-04-25T06:37:23.637Z,99197.13
2023-04-25T06:38:03.731Z,99186.97
2023-04-25T06:38:43.708Z,99184.38
2023-04-25T06:39:26.304Z,99183.84
2023-04-25T06:40:06.643Z,99194.78
2023-04-25T06:40:46.755Z,99189.75
2023-04-25T06:41:29.861Z,99191.31
2023-04-25T06:42:10.990Z,99194.06
2023-04-25T06:42:51.846Z,99178.06
2023-04-25T06:43:34.366Z,99182.63
2023-04-25T06:44:14.679Z,99189.66
2023-04-25T06:44:54.816Z,99176.13
2023-04-25T06:45:34.620Z,99187.72
2023-04-25T06:46:14.710Z,99159.25
2023-04-25T06:46:54.633Z,99193.38
2023-04-25T06:47:35.777Z,99179.66
2023-04-25T06:48:15.600Z,99198.09
2023-04-25T06:48:56.019Z,99199.41
2023-04-25T06:49:35.706Z,99202.50
2023-04-25T06:50:16.734Z,99192.72
2023-04-25T06:50:56.683Z,99181.19
2023-04-25T06:51:37.752Z,99186.66
2023-04-25T06:52:18.610Z,99193.75
2023-04-25T06:52:58.708Z,99183.25
2023-04-25T06:53:38.606Z,99187.34
2023-04-25T06:54:18.784Z,99182.88
2023-04-25T06:54:58.634Z,99174.59
2023-04-25T06:55:39.744Z,99179.91
2023-04-25T06:56:26.638Z,99170.72
2023-04-25T06:57:01.955Z,99179.66
2023-04-25T06:57:48.628Z,99154.00
2023-04-25T06:58:23.222Z,99182.59
2023-04-25T06:59:10.619Z,99180.25
2023-04-25T06:59:44.702Z,99184.97
2023-04-25T07:00:25.604Z,99190.06
2023-04-25T07:01:05.952Z,99195.06
2023-04-25T07:01:45.695Z,99164.34
2023-04-25T07:02:25.980Z,99191.94
2023-04-25T07:03:05.763Z,99188.63
2023-04-25T07:03:46.877Z,99183.44
2023-04-25T07:04:26.852Z,99179.06
2023-04-25T07:05:07.727Z,99182.53
2023-04-25T07:05:48.617Z,99176.88
2023-04-25T07:06:28.948Z,99170.84
2023-04-25T07:07:10.639Z,99181.38
2023-04-25T07:07:50.795Z,99181.75
2023-04-25T07:08:30.618Z,99189.63
2023-04-25T07:09:13.797Z,99192.06
2023-04-25T07:09:53.606Z,99189.84
2023-04-25T07:10:33.714Z,99182.38
2023-04-25T07:11:14.635Z,99184.75
2023-04-25T07:11:54.663Z,99195.03
2023-04-25T07:12:34.595Z,99221.41
2023-04-25T07:13:14.758Z,99207.84
2023-04-25T07:13:54.594Z,99160.13
2023-04-25T07:14:35.705Z,99189.19
2023-04-25T07:15:17.624Z,99203.28
2023-04-25T07:15:58.051Z,99203.19
2023-04-25T07:16:37.713Z,99188.88
2023-04-25T07:17:17.717Z,99182.06
2023-04-25T07:17:57.661Z,99196.50
2023-04-25T07:18:37.956Z,99191.00
2023-04-25T07:19:18.601Z,99189.13
2023-04-25T07:19:58.673Z,99192.75
2023-04-25T07:20:40.580Z,99177.13
2023-04-25T07:21:20.760Z,99192.38
2023-04-25T07:22:01.638Z,99185.63
2023-04-25T07:22:41.763Z,99182.66
2023-04-25T07:23:22.616Z,99202.16
2023-04-25T07:24:02.955Z,99194.44
2023-04-25T07:24:42.609Z,99204.69
2023-04-25T07:25:22.709Z,99208.69
2023-04-25T07:26:03.602Z,99184.47
2023-04-25T07:26:43.742Z,99197.59
2023-04-25T07:27:24.604Z,99194.59
2023-04-25T07:28:05.358Z,99163.38
2023-04-25T07:28:46.645Z,99187.50
2023-04-25T07:29:26.861Z,99193.88
2023-04-25T07:30:06.591Z,99194.56
2023-04-25T07:30:46.710Z,99201.44
2023-04-25T07:31:27.618Z,99197.97
2023-04-25T07:32:08.712Z,99208.41
2023-04-25T07:32:48.782Z,99184.00
2023-04-25T07:33:28.679Z,99199.38
2023-04-25T07:34:08.577Z,99197.63
2023-04-25T07:34:49.699Z,99189.28
2023-04-25T07:35:30.590Z,99204.03
2023-04-25T07:36:10.687Z,99181.22
2023-04-25T07:36:51.656Z,99193.66
2023-04-25T07:37:31.712Z,99190.72
2023-04-25T07:38:14.680Z,99198.94
2023-04-25T07:38:54.842Z,99198.41
2023-04-25T07:39:35.582Z,99190.69
2023-04-25T07:40:17.592Z,99187.41
2023-04-25T07:40:57.611Z,99196.25
2023-04-25T07:41:37.704Z,99205.09
2023-04-25T07:42:17.575Z,99201.06
2023-04-25T07:42:57.734Z,99197.59
2023-04-25T07:43:38.618Z,99163.09
2023-04-25T07:44:18.714Z,99181.53
2023-04-25T07:44:59.579Z,99210.38
2023-04-25T07:45:39.710Z,99196.50
2023-04-25T07:46:20.691Z,99198.56
2023-04-25T07:47:02.472Z,99192.44
2023-04-25T07:47:44.634Z,99185.66
2023-04-25T07:48:25.710Z,99212.19
2023-04-25T07:49:05.619Z,99182.75
2023-04-25T07:49:46.380Z,99206.63
2023-04-25T07:50:27.587Z,99178.63
2023-04-25T07:51:08.405Z,99199.06
2023-04-25T07:51:50.567Z,99193.47
2023-04-25T07:52:30.680Z,99182.38
2023-04-25T07:53:11.601Z,99188.72
2023-04-25T07:53:51.741Z,99190.84
2023-04-25T07:54:32.730Z,99200.03
2023-04-25T07:55:12.935Z,99195.56
2023-04-25T07:55:53.641Z,99189.34
2023-04-25T07:56:45.243Z,99201.72
2023-04-25T07:57:32.615Z,99200.97
2023-04-25T07:58:16.360Z,99189.91
2023-04-25T07:58:57.520Z,99199.78
2023-04-25T07:59:44.598Z,99196.47
2023-04-25T08:00:38.574Z,99196.31
2023-04-25T08:01:41.447Z,99198.84
2023-04-25T08:02:53.631Z,99198.69